createdAt,value
2023-03-24T16:40:17.797Z,4.00
2023-03-24T16:41:18.805Z,4.00
2023-03-24T16:42:25.533Z,4.00
2023-03-24T16:43:18.901Z,4.00
2023-03-24T16:44:18.942Z,4.00
2023-03-24T16:45:19.026Z,4.00
2023-03-24T16:46:19.089Z,4.00
2023-03-24T16:47:19.128Z,4.00
2023-03-24T16:48:19.173Z,4.00
2023-03-24T16:49:19.235Z,4.00
2023-03-24T16:50:19.285Z,4.00
2023-03-24T16:52:40.952Z,4.00
2023-03-24T16:53:40.884Z,4.00
2023-03-24T16:54:47.408Z,4.00
2023-03-24T16:55:40.953Z,0.00
2023-03-24T16:56:41.085Z,0.00
2023-03-24T16:57:41.053Z,0.00
2023-03-24T16:58:41.136Z,4.00
2023-03-24T16:59:41.175Z,0.00
2023-03-24T17:00:41.330Z,0.00
2023-03-24T17:01:41.314Z,0.00
2023-03-24T17:02:41.423Z,0.00
2023-03-24T17:03:41.509Z,0.00
2023-03-24T17:04:41.517Z,0.00
2023-03-24T17:05:41.600Z,0.00
2023-03-24T17:52:43.845Z,40.00
2023-03-24T17:53:44.616Z,48.00
2023-03-24T17:54:45.894Z,32.00
2023-03-24T17:55:44.579Z,48.00
2023-03-24T17:56:44.705Z,44.00
2023-03-24T17:57:45.187Z,44.00
2023-03-24T17:58:45.399Z,44.00
2023-03-24T17:59:45.080Z,44.00
2023-03-24T18:00:44.910Z,68.00
2023-03-24T18:01:45.204Z,68.00
2023-03-24T18:02:45.283Z,68.00
2023-03-24T18:03:45.050Z,72.00
2023-03-24T18:04:45.120Z,68.00
2023-03-24T18:05:45.164Z,68.00
2023-03-24T18:06:45.175Z,68.00
2023-03-24T18:07:45.740Z,68.00
2023-03-24T18:08:45.416Z,68.00
2023-03-24T18:09:45.400Z,68.00
2023-03-24T18:10:45.427Z,68.00
2023-03-24T18:11:47.711Z,72.00
2023-03-24T18:12:45.589Z,32.00
2023-03-24T18:13:45.740Z,40.00
2023-03-24T18:14:45.863Z,40.00
2023-03-24T18:15:45.947Z,40.00
2023-03-24T18:16:45.912Z,40.00
2023-03-24T18:17:45.906Z,40.00
2023-03-24T18:18:46.013Z,40.00
2023-03-24T18:19:46.054Z,40.00
2023-03-24T18:20:46.219Z,40.00
2023-03-24T18:21:46.151Z,40.00
2023-03-24T18:22:46.439Z,40.00
2023-03-24T18:23:46.669Z,40.00
2023-03-24T18:24:47.111Z,40.00
2023-03-24T18:25:46.319Z,40.00
2023-03-24T18:26:47.679Z,40.00
2023-03-24T18:27:46.526Z,40.00
2023-03-24T18:28:46.738Z,40.00
2023-03-24T18:29:46.676Z,40.00
2023-03-24T18:30:46.662Z,40.00
2023-03-24T18:31:47.129Z,40.00
2023-03-24T18:32:47.590Z,40.00
2023-03-24T18:33:47.066Z,40.00
2023-03-24T18:34:48.117Z,40.00
2023-03-24T18:35:47.749Z,40.00
2023-03-24T18:36:47.270Z,40.00
2023-03-24T18:37:47.053Z,40.00
2023-03-24T18:38:47.111Z,40.00
2023-03-24T18:39:47.331Z,40.00
2023-03-24T18:40:49.653Z,40.00
2023-03-24T18:41:47.301Z,40.00
2023-03-24T18:42:48.390Z,40.00
2023-03-24T18:43:47.881Z,40.00
2023-03-24T18:44:48.157Z,40.00
2023-03-24T18:45:47.806Z,40.00
2023-03-24T18:46:47.768Z,40.00
2023-03-24T18:47:48.291Z,40.00
2023-03-24T18:48:47.921Z,40.00
2023-03-24T18:49:47.922Z,40.00
2023-03-24T18:50:48.034Z,40.00
2023-03-24T18:51:47.888Z,40.00
2023-03-24T18:52:48.139Z,40.00
2023-03-24T18:53:48.005Z,40.00
2023-03-24T18:54:48.261Z,40.00
2023-03-24T18:55:48.524Z,40.00
2023-03-24T18:56:48.294Z,40.00
2023-03-24T18:57:48.421Z,40.00
2023-03-24T18:58:50.569Z,40.00
2023-03-24T18:59:48.345Z,40.00
2023-03-24T19:00:48.532Z,40.00
2023-03-24T19:01:48.632Z,40.00
2023-03-24T19:02:49.171Z,40.00
2023-03-24T19:03:48.678Z,40.00
2023-03-24T19:04:48.857Z,40.00
2023-03-24T19:05:48.871Z,36.00
2023-03-24T19:06:48.875Z,40.00
2023-03-24T19:07:49.169Z,40.00
2023-03-24T19:08:48.971Z,40.00
2023-03-24T19:09:49.081Z,40.00
2023-03-24T19:10:49.171Z,36.00
2023-03-24T19:11:49.169Z,40.00
2023-03-24T19:12:49.544Z,40.00
2023-03-24T19:13:49.482Z,40.00
2023-03-24T19:14:49.515Z,40.00
2023-03-24T19:15:49.813Z,40.00
2023-03-24T19:16:49.535Z,40.00
2023-03-24T19:17:49.604Z,40.00
2023-03-24T19:18:49.578Z,40.00
2023-03-24T19:19:49.676Z,40.00
2023-03-24T19:20:49.791Z,40.00
2023-03-24T19:21:50.476Z,40.00
2023-03-24T19:22:49.897Z,40.00
2023-03-24T19:23:52.461Z,40.00
2023-03-24T19:24:49.989Z,40.00
2023-03-24T19:25:50.257Z,40.00
2023-03-24T19:26:50.094Z,40.00
2023-03-24T19:27:50.161Z,40.00
2023-03-24T19:28:50.211Z,40.00
2023-03-24T19:29:50.238Z,40.00
2023-03-24T19:30:50.392Z,40.00
2023-03-24T19:31:50.473Z,40.00
2023-03-24T19:32:50.484Z,40.00
2023-03-24T19:33:50.877Z,40.00
2023-03-24T19:34:50.589Z,36.00
2023-03-24T19:35:51.062Z,36.00
2023-03-24T19:36:50.787Z,40.00
2023-03-24T19:37:50.864Z,36.00
2023-03-24T19:38:51.321Z,36.00
2023-03-24T19:39:51.212Z,40.00
2023-03-24T19:40:50.938Z,40.00
2023-03-24T19:41:51.060Z,40.00
2023-03-24T19:42:51.163Z,40.00
2023-03-24T19:43:51.152Z,36.00
2023-03-24T19:44:51.321Z,40.00
2023-03-24T19:45:51.476Z,36.00
2023-03-24T19:46:51.376Z,36.00
2023-03-24T19:47:51.577Z,40.00
2023-03-24T19:48:51.610Z,36.00
2023-03-24T19:49:51.635Z,36.00
2023-03-24T19:50:51.746Z,36.00
2023-03-24T19:51:51.796Z,36.00
2023-03-24T19:52:51.942Z,36.00
2023-03-24T19:53:52.020Z,36.00
2023-03-24T19:54:51.953Z,40.00
2023-03-24T19:55:52.209Z,40.00
2023-03-24T19:56:52.946Z,36.00
2023-03-24T19:57:52.455Z,40.00
2023-03-24T19:58:52.197Z,40.00
2023-03-24T19:59:52.253Z,36.00
2023-03-24T20:00:52.355Z,40.00
2023-03-24T20:01:52.398Z,36.00
2023-03-24T20:02:53.098Z,36.00
2023-03-24T20:03:52.588Z,40.00
2023-03-24T20:04:52.603Z,40.00
2023-03-24T20:06:00.644Z,36.00
2023-03-24T20:06:52.893Z,36.00
2023-03-24T20:07:52.934Z,36.00
2023-03-24T20:08:52.825Z,36.00
2023-03-24T20:09:52.932Z,36.00
2023-03-24T20:10:53.124Z,36.00
2023-03-24T20:11:53.010Z,36.00
2023-03-24T20:12:53.470Z,36.00
2023-03-24T20:13:53.208Z,36.00
2023-03-24T20:14:53.238Z,40.00
2023-03-24T20:15:53.894Z,40.00
2023-03-24T20:16:53.432Z,36.00
2023-03-24T20:17:54.101Z,36.00
2023-03-24T20:18:53.465Z,40.00
2023-03-24T20:19:53.653Z,36.00
2023-03-24T20:20:53.565Z,36.00
2023-03-24T20:21:53.678Z,36.00
2023-03-24T20:22:54.475Z,36.00
2023-03-24T20:23:53.756Z,36.00
2023-03-24T20:24:54.538Z,36.00
2023-03-24T20:25:54.547Z,36.00
2023-03-24T20:26:54.193Z,40.00
2023-03-24T20:27:54.181Z,36.00
2023-03-24T20:28:55.023Z,40.00
2023-03-24T20:29:54.092Z,36.00
2023-03-24T20:30:54.270Z,40.00
2023-03-24T20:31:54.306Z,36.00
2023-03-24T20:32:55.889Z,40.00
2023-03-24T20:33:54.428Z,40.00
2023-03-24T20:34:54.564Z,40.00
2023-03-24T20:35:54.514Z,36.00
2023-03-24T20:36:54.786Z,40.00
2023-03-24T20:37:55.078Z,40.00
2023-03-24T20:38:55.132Z,36.00
2023-03-24T20:39:54.798Z,36.00
2023-03-24T20:40:54.975Z,40.00
2023-03-24T20:41:55.121Z,40.00
2023-03-24T20:42:55.561Z,40.00
2023-03-24T20:43:55.510Z,40.00
2023-03-24T20:44:55.112Z,40.00
2023-03-24T20:45:55.392Z,36.00
2023-03-24T20:46:55.537Z,36.00
2023-03-24T20:47:55.436Z,40.00
2023-03-24T20:48:55.437Z,40.00
2023-03-24T20:49:55.485Z,36.00
2023-03-24T20:50:55.447Z,40.00
2023-03-24T20:51:55.526Z,40.00
2023-03-24T20:52:55.508Z,36.00
2023-03-24T20:53:55.695Z,56.00
2023-03-24T20:54:55.939Z,56.00
2023-03-24T20:55:55.903Z,56.00
2023-03-24T20:56:55.841Z,56.00
2023-03-24T20:57:56.116Z,56.00
2023-03-24T20:58:55.968Z,56.00
2023-03-24T20:59:56.214Z,56.00
2023-03-24T21:00:56.249Z,56.00
2023-03-24T21:01:56.070Z,56.00
2023-03-24T21:02:56.543Z,56.00
2023-03-24T21:04:02.213Z,56.00
2023-03-24T21:04:56.279Z,56.00
2023-03-24T21:05:56.655Z,56.00
2023-03-24T21:06:56.380Z,56.00
2023-03-24T21:07:56.500Z,56.00
2023-03-24T21:08:56.467Z,56.00
2023-03-24T21:09:56.480Z,56.00
2023-03-24T21:10:57.347Z,56.00
2023-03-24T21:11:56.655Z,56.00
2023-03-24T21:12:56.690Z,56.00
2023-03-24T21:13:57.025Z,56.00
2023-03-24T21:14:56.786Z,56.00
2023-03-24T21:15:56.879Z,56.00
2023-03-24T21:16:57.031Z,56.00
2023-03-24T21:17:57.172Z,56.00
2023-03-24T21:18:57.208Z,56.00
2023-03-24T21:19:57.164Z,56.00
2023-03-24T21:20:57.317Z,56.00
2023-03-24T21:21:57.597Z,56.00
2023-03-24T21:22:57.536Z,56.00
2023-03-24T21:23:57.672Z,56.00
2023-03-24T21:24:57.630Z,56.00
2023-03-24T21:25:57.595Z,56.00
2023-03-24T21:26:58.307Z,56.00
2023-03-24T21:27:57.777Z,56.00
2023-03-24T21:28:58.011Z,56.00
2023-03-24T21:29:57.858Z,56.00
2023-03-24T21:30:58.389Z,56.00
2023-03-24T21:31:58.014Z,56.00
2023-03-24T21:32:58.165Z,56.00
2023-03-24T21:33:58.133Z,56.00
2023-03-24T21:34:58.300Z,56.00
2023-03-24T21:35:58.269Z,56.00
2023-03-24T21:36:58.796Z,56.00
2023-03-24T21:37:58.450Z,56.00
2023-03-24T21:38:58.464Z,56.00
2023-03-24T21:39:58.807Z,56.00
2023-03-24T21:40:58.630Z,56.00
2023-03-24T21:41:58.710Z,56.00
2023-03-24T21:42:58.676Z,56.00
2023-03-24T21:43:58.655Z,56.00
2023-03-24T21:44:59.012Z,56.00
2023-03-24T21:45:58.838Z,56.00
2023-03-24T21:46:59.063Z,56.00
2023-03-24T21:47:59.022Z,56.00
2023-03-24T21:48:59.325Z,56.00
2023-03-24T21:49:58.962Z,56.00
2023-03-24T21:50:59.120Z,56.00
2023-03-24T21:51:59.287Z,56.00
2023-03-24T21:52:59.212Z,56.00
2023-03-24T21:53:59.221Z,56.00
2023-03-24T21:54:59.640Z,56.00
2023-03-24T21:55:59.867Z,56.00
2023-03-24T21:56:59.465Z,56.00
2023-03-24T21:57:59.542Z,56.00
2023-03-24T21:59:00.600Z,56.00
2023-03-24T21:59:59.591Z,56.00
2023-03-24T22:01:00.074Z,56.00
2023-03-24T22:01:59.811Z,56.00
2023-03-24T22:03:00.053Z,56.00
2023-03-24T22:04:00.399Z,56.00
2023-03-24T22:05:00.140Z,56.00
2023-03-24T22:06:00.535Z,56.00
2023-03-24T22:07:00.005Z,56.00
2023-03-24T22:08:00.069Z,56.00
2023-03-24T22:09:00.123Z,56.00
2023-03-24T22:10:00.182Z,56.00
2023-03-24T22:11:00.229Z,56.00
2023-03-24T22:12:00.320Z,56.00
2023-03-24T22:13:00.362Z,56.00
2023-03-24T22:14:00.445Z,56.00
2023-03-24T22:15:00.520Z,56.00
2023-03-24T22:16:00.514Z,56.00
2023-03-24T22:17:00.708Z,56.00
2023-03-24T22:18:00.757Z,56.00
2023-03-24T22:19:00.735Z,56.00
2023-03-24T22:20:00.862Z,56.00
2023-03-24T22:21:00.864Z,56.00
2023-03-24T22:22:00.928Z,56.00
2023-03-24T22:23:01.009Z,56.00
2023-03-24T22:24:01.055Z,56.00
2023-03-24T22:25:01.156Z,56.00
2023-03-24T22:26:01.144Z,56.00
2023-03-24T22:27:01.232Z,56.00
2023-03-24T22:28:01.252Z,56.00
2023-03-24T22:29:01.311Z,56.00
2023-03-24T22:30:01.320Z,56.00
2023-03-24T22:31:01.397Z,56.00
2023-03-24T22:32:01.535Z,56.00
2023-03-24T22:33:01.600Z,56.00
2023-03-24T22:34:01.622Z,56.00
2023-03-24T22:35:01.688Z,56.00
2023-03-24T22:36:01.736Z,56.00
2023-03-24T22:37:01.824Z,56.00
2023-03-24T22:38:01.888Z,56.00
2023-03-24T22:39:01.893Z,56.00
2023-03-24T22:40:02.007Z,56.00
2023-03-24T22:41:02.069Z,56.00
2023-03-24T22:42:02.137Z,56.00
2023-03-24T22:43:02.300Z,56.00
2023-03-24T22:44:02.286Z,56.00
2023-03-24T22:45:02.344Z,56.00
2023-03-24T22:46:02.571Z,56.00
2023-03-24T22:47:02.422Z,56.00
2023-03-24T22:48:02.551Z,56.00
2023-03-24T22:49:02.545Z,56.00
2023-03-24T22:50:02.626Z,56.00
2023-03-24T22:51:02.700Z,56.00
2023-03-24T22:52:02.814Z,56.00
2023-03-24T22:53:02.900Z,56.00
2023-03-24T22:54:02.929Z,56.00
2023-03-24T22:55:03.011Z,56.00
2023-03-24T22:56:03.098Z,56.00
2023-03-24T22:57:03.224Z,56.00
2023-03-24T22:58:03.504Z,56.00
2023-03-24T22:59:03.216Z,56.00
2023-03-24T23:00:03.298Z,56.00
2023-03-24T23:01:03.362Z,56.00
2023-03-24T23:02:09.283Z,56.00
2023-03-24T23:03:03.563Z,56.00
2023-03-24T23:04:03.581Z,56.00
2023-03-24T23:05:03.787Z,56.00
2023-03-24T23:06:05.332Z,56.00
2023-03-24T23:07:03.749Z,56.00
2023-03-24T23:08:03.806Z,56.00
2023-03-24T23:09:06.563Z,56.00
2023-03-24T23:10:05.592Z,56.00
2023-03-24T23:11:05.565Z,56.00
2023-03-24T23:12:04.037Z,56.00
2023-03-24T23:13:04.133Z,56.00
2023-03-24T23:14:04.116Z,56.00
2023-03-24T23:15:04.283Z,56.00
2023-03-24T23:16:04.265Z,56.00
2023-03-24T23:17:04.280Z,56.00
2023-03-24T23:18:04.472Z,56.00
2023-03-24T23:19:04.443Z,56.00
2023-03-24T23:20:04.482Z,56.00
2023-03-24T23:21:04.547Z,56.00
2023-03-24T23:22:04.565Z,56.00
2023-03-24T23:23:07.065Z,56.00
2023-03-24T23:24:04.747Z,56.00
2023-03-24T23:25:04.767Z,56.00
2023-03-24T23:26:04.856Z,56.00
2023-03-24T23:27:04.923Z,56.00
2023-03-24T23:28:05.005Z,56.00
2023-03-24T23:29:05.038Z,56.00
2023-03-24T23:30:05.070Z,56.00
2023-03-24T23:31:05.169Z,56.00
2023-03-24T23:32:05.161Z,56.00
2023-03-24T23:33:05.480Z,56.00
2023-03-24T23:34:06.245Z,56.00
2023-03-24T23:35:05.334Z,56.00
2023-03-24T23:36:05.469Z,56.00
2023-03-24T23:37:05.411Z,56.00
2023-03-24T23:38:05.574Z,56.00
2023-03-24T23:39:05.550Z,56.00
2023-03-24T23:40:05.604Z,56.00
2023-03-24T23:41:05.678Z,56.00
2023-03-24T23:42:06.668Z,56.00
2023-03-24T23:43:05.774Z,56.00
2023-03-24T23:44:05.836Z,56.00
2023-03-24T23:45:06.020Z,56.00
2023-03-24T23:46:05.981Z,56.00
2023-03-24T23:47:05.976Z,56.00
2023-03-24T23:48:06.107Z,56.00
2023-03-24T23:49:06.153Z,56.00
2023-03-24T23:50:06.223Z,56.00
2023-03-24T23:51:06.327Z,56.00
2023-03-24T23:52:06.276Z,56.00
2023-03-24T23:53:06.450Z,56.00
2023-03-24T23:54:06.380Z,56.00
2023-03-24T23:55:06.412Z,56.00
2023-03-24T23:56:06.459Z,56.00
2023-03-24T23:57:06.563Z,56.00
2023-03-24T23:58:06.727Z,56.00
2023-03-24T23:59:06.648Z,56.00
